Time;durP1;ratioP1;P1;durP2;ratioP2;P2;SDS_P1;SDS_P2;PMS_P1;PMS_P2;Temp;Humidity;BMP_temperature;BMP_pressure;BME280_temperature;BME280_humidity;BME280_pressure;Samples;Min_cycle;Max_cycle;Signal;HPM_P1;HPM_P2
2021/12/22 00:00:49;;;;;;;24.23;11.20;;;;;;;;;;5077264;28;20103;-76
2021/12/22 00:03:15;;;;;;;36.72;10.68;;;;;;;;;;5077328;28;20507;-77
2021/12/22 00:05:46;;;;;;;35.47;11.35;;;;;;;;;;5077848;28;20031;-77
2021/12/22 00:08:13;;;;;;;24.45;10.25;;;;;;;;;;5077812;28;20028;-76
2021/12/22 00:10:43;;;;;;;33.20;8.52;;;;;;;;;;5077689;28;20329;-77
2021/12/22 00:13:09;;;;;;;24.80;9.77;;;;;;;;;;5077174;28;20377;-77
2021/12/22 00:15:35;;;;;;;21.17;9.93;;;;;;;;;;5077444;28;20059;-77
2021/12/22 00:18:01;;;;;;;28.63;9.85;;;;;;;;;;5059780;28;20110;-77
2021/12/22 00:20:27;;;;;;;29.55;11.35;;;;;;;;;;5077275;28;20020;-77
2021/12/22 00:22:53;;;;;;;30.00;10.13;;;;;;;;;;5043310;28;20078;-77
2021/12/22 00:25:21;;;;;;;31.27;11.32;;;;;;;;;;5077558;28;20016;-77
2021/12/22 00:27:47;;;;;;;37.25;12.68;;;;;;;;;;5079684;28;20012;-77
2021/12/22 00:30:12;;;;;;;34.25;12.90;;;;;;;;;;5077495;28;20017;-76
2021/12/22 00:32:40;;;;;;;41.28;16.10;;;;;;;;;;5059757;28;20024;-77
2021/12/22 00:35:06;;;;;;;41.33;17.88;;;;;;;;;;5077214;28;20052;-76
2021/12/22 00:37:32;;;;;;;44.65;18.00;;;;;;;;;;5059564;28;20055;-77
2021/12/22 00:39:58;;;;;;;44.45;18.45;;;;;;;;;;5059623;28;20028;-77
2021/12/22 00:42:24;;;;;;;43.15;19.83;;;;;;;;;;5060164;28;20107;-76
2021/12/22 00:44:53;;;;;;;54.60;22.20;;;;;;;;;;5059393;28;20449;-77
2021/12/22 00:47:21;;;;;;;42.25;20.70;;;;;;;;;;5077310;28;20062;-77
2021/12/22 00:49:47;;;;;;;56.28;22.15;;;;;;;;;;5076670;28;20104;-77
2021/12/22 00:52:13;;;;;;;45.00;20.13;;;;;;;;;;5077112;28;20149;-77
2021/12/22 00:54:39;;;;;;;45.28;18.98;;;;;;;;;;5077219;28;20020;-77
2021/12/22 00:57:06;;;;;;;48.60;22.77;;;;;;;;;;5077283;28;20024;-77
2021/12/22 00:59:33;;;;;;;50.20;20.23;;;;;;;;;;5079906;28;20047;-76
2021/12/22 01:02:00;;;;;;;40.08;18.60;;;;;;;;;;5076836;28;20113;-77
2021/12/22 01:04:26;;;;;;;53.95;21.45;;;;;;;;;;5076900;28;20099;-77
2021/12/22 01:06:52;;;;;;;48.97;22.33;;;;;;;;;;5076966;28;20399;-76
2021/12/22 01:09:18;;;;;;;55.15;21.50;;;;;;;;;;5058934;28;20025;-77
2021/12/22 01:11:44;;;;;;;52.55;24.05;;;;;;;;;;5076922;28;20028;-77
2021/12/22 01:14:10;;;;;;;48.67;22.77;;;;;;;;;;5076584;28;20028;-77
2021/12/22 01:16:36;;;;;;;47.00;21.02;;;;;;;;;;5076292;28;20449;-76
2021/12/22 01:19:08;;;;;;;49.53;23.67;;;;;;;;;;5059002;28;20028;-76
2021/12/22 01:21:45;;;;;;;49.80;19.10;;;;;;;;;;5076060;28;20063;-77
2021/12/22 01:24:21;;;;;;;50.80;24.10;;;;;;;;;;5075901;28;20115;-77
2021/12/22 01:26:52;;;;;;;45.97;24.48;;;;;;;;;;5074949;28;20020;-77
2021/12/22 01:29:19;;;;;;;52.05;23.42;;;;;;;;;;5056680;28;20481;-77
2021/12/22 01:31:45;;;;;;;58.35;28.80;;;;;;;;;;5075543;28;20024;-76
2021/12/22 01:34:11;;;;;;;67.13;31.67;;;;;;;;;;5075483;28;20047;-77
2021/12/22 01:36:37;;;;;;;60.80;31.80;;;;;;;;;;5075417;28;20036;-76
2021/12/22 01:39:04;;;;;;;73.10;39.15;;;;;;;;;;5074721;28;20024;-76
2021/12/22 01:41:30;;;;;;;78.68;36.90;;;;;;;;;;5056693;28;20016;-76
2021/12/22 01:43:57;;;;;;;121.60;63.40;;;;;;;;;;5076688;28;20114;-76
2021/12/22 01:49:36;;;;;;;77.22;40.28;;;;;;;;;;5080767;28;20073;-76
2021/12/22 01:52:04;;;;;;;75.95;32.28;;;;;;;;;;5079168;28;20047;-76
2021/12/22 01:54:35;;;;;;;85.43;42.13;;;;;;;;;;5044926;28;20040;-77
2021/12/22 01:57:06;;;;;;;;;;;;;;;;;;5062765;28;20032;-78
2021/12/22 01:59:32;;;;;;;65.00;31.80;;;;;;;;;;5085914;22;19908;-82
2021/12/22 02:01:59;;;;;;;60.28;30.52;;;;;;;;;;5087926;28;20358;-82
2021/12/22 02:04:25;;;;;;;46.58;23.35;;;;;;;;;;5088123;28;20019;-81
2021/12/22 02:06:51;;;;;;;33.28;17.25;;;;;;;;;;5087887;22;20044;-77
2021/12/22 02:09:33;;;;;;;40.45;19.65;;;;;;;;;;5061635;28;20021;-76
2021/12/22 02:11:59;;;;;;;52.40;22.05;;;;;;;;;;5087200;22;20139;-76
2021/12/22 02:14:25;;;;;;;49.08;25.45;;;;;;;;;;5080308;28;20423;-77
2021/12/22 02:16:51;;;;;;;53.17;28.92;;;;;;;;;;5081064;28;20327;-77
2021/12/22 02:19:17;;;;;;;41.72;24.05;;;;;;;;;;5061986;28;20051;-78
2021/12/22 02:21:50;;;;;;;38.97;18.27;;;;;;;;;;5080297;28;20077;-78
2021/12/22 02:24:16;;;;;;;35.95;16.73;;;;;;;;;;5103448;22;20044;-81
2021/12/22 02:27:00;;;;;;;41.53;18.38;;;;;;;;;;5087135;28;20013;-81
2021/12/22 02:29:35;;;;;;;35.60;16.20;;;;;;;;;;5086962;28;20024;-81
2021/12/22 02:34:45;;;;;;;21.77;10.93;;;;;;;;;;5087955;28;20016;-81
2021/12/22 02:37:14;;;;;;;46.70;14.68;;;;;;;;;;5069058;28;20029;-81
2021/12/22 02:39:45;;;;;;;37.28;16.83;;;;;;;;;;5069662;28;20052;-81
2021/12/22 02:42:12;;;;;;;34.28;13.88;;;;;;;;;;5065481;28;20127;-81
2021/12/22 02:44:38;;;;;;;49.53;20.50;;;;;;;;;;5052388;28;20122;-81
2021/12/22 02:47:26;;;;;;;36.00;13.77;;;;;;;;;;5091649;22;20060;-76
2021/12/22 02:49:52;;;;;;;40.80;19.08;;;;;;;;;;5077286;28;20024;-76
2021/12/22 02:52:19;;;;;;;59.40;24.95;;;;;;;;;;5075794;28;20059;-77
2021/12/22 02:54:53;;;;;;;64.15;31.83;;;;;;;;;;5083677;22;20036;-75
2021/12/22 02:57:29;;;;;;;63.20;31.25;;;;;;;;;;5051900;22;20283;-76
2021/12/22 03:05:22;;;;;;;43.95;19.35;;;;;;;;;;5097561;22;20045;-76
2021/12/22 03:07:49;;;;;;;77.57;27.55;;;;;;;;;;5100247;22;20047;-77
2021/12/22 03:10:20;;;;;;;85.03;28.13;;;;;;;;;;5141174;22;20066;-77
2021/12/22 03:13:01;;;;;;;68.15;25.92;;;;;;;;;;5069605;22;20049;-74
2021/12/22 03:15:31;;;;;;;106.88;36.50;;;;;;;;;;5057896;28;20092;-77
2021/12/22 03:18:02;;;;;;;72.53;20.98;;;;;;;;;;5040230;28;20033;-75
2021/12/22 03:20:28;;;;;;;34.33;15.35;;;;;;;;;;5040808;28;20390;-74
2021/12/22 03:22:55;;;;;;;35.35;16.77;;;;;;;;;;5056041;28;20131;-75
2021/12/22 03:25:26;;;;;;;29.85;12.43;;;;;;;;;;5055907;28;20059;-76
2021/12/22 03:27:53;;;;;;;27.58;12.20;;;;;;;;;;5039489;28;20021;-76
2021/12/22 03:30:21;;;;;;;34.35;9.80;;;;;;;;;;5039843;28;20025;-76
2021/12/22 03:32:50;;;;;;;27.92;11.35;;;;;;;;;;5039897;28;20020;-77
2021/12/22 03:35:21;;;;;;;33.55;12.95;;;;;;;;;;5056520;28;20115;-76
2021/12/22 03:37:57;;;;;;;30.63;11.50;;;;;;;;;;5057129;28;20033;-75
2021/12/22 03:40:30;;;;;;;24.35;11.00;;;;;;;;;;5041608;28;20027;-75
2021/12/22 03:43:01;;;;;;;25.98;12.95;;;;;;;;;;5057240;28;20020;-77
2021/12/22 03:45:32;;;;;;;40.17;16.25;;;;;;;;;;5075643;28;20415;-76
2021/12/22 03:47:59;;;;;;;39.53;15.75;;;;;;;;;;5039847;28;20020;-77
2021/12/22 03:50:26;;;;;;;19.50;9.40;;;;;;;;;;5056617;28;20016;-77
2021/12/22 03:52:52;;;;;;;23.85;9.95;;;;;;;;;;5040891;28;20016;-76
2021/12/22 03:55:20;;;;;;;15.30;7.65;;;;;;;;;;5039904;28;20047;-75
2021/12/22 03:57:50;;;;;;;;;;;;;;;;;;5056482;28;20048;-74
2021/12/22 04:00:17;;;;;;;28.35;7.60;;;;;;;;;;5057358;28;20354;-75
2021/12/22 04:02:54;;;;;;;12.30;6.03;;;;;;;;;;5040268;28;20016;-76
2021/12/22 04:05:24;;;;;;;27.48;7.40;;;;;;;;;;5040944;28;20099;-75
2021/12/22 04:07:53;;;;;;;20.98;6.22;;;;;;;;;;5074577;28;20361;-73
2021/12/22 04:10:23;;;;;;;16.92;5.65;;;;;;;;;;5039648;28;20078;-75
2021/12/22 04:12:58;;;;;;;46.15;7.13;;;;;;;;;;5075810;28;20035;-74
2021/12/22 04:15:29;;;;;;;14.03;4.97;;;;;;;;;;5040179;28;20056;-74
2021/12/22 04:17:55;;;;;;;15.07;5.93;;;;;;;;;;5055531;28;20047;-76
2021/12/22 04:20:22;;;;;;;19.50;6.20;;;;;;;;;;5056301;28;20032;-75
2021/12/22 04:22:49;;;;;;;17.25;5.18;;;;;;;;;;5039837;28;20024;-75
2021/12/22 04:25:21;;;;;;;18.45;6.25;;;;;;;;;;5042777;28;20024;-76
2021/12/22 04:27:52;;;;;;;20.70;6.22;;;;;;;;;;5039534;28;20441;-77
2021/12/22 04:30:20;;;;;;;21.60;7.68;;;;;;;;;;5054108;28;20485;-74
2021/12/22 04:32:47;;;;;;;21.20;5.78;;;;;;;;;;5045421;22;20011;-77
2021/12/22 04:35:13;;;;;;;16.00;5.72;;;;;;;;;;5037283;28;20025;-75
2021/12/22 04:37:40;;;;;;;20.08;7.35;;;;;;;;;;5036854;28;20135;-75
2021/12/22 04:40:06;;;;;;;18.20;6.43;;;;;;;;;;5072710;28;20169;-77
2021/12/22 04:42:32;;;;;;;16.52;6.72;;;;;;;;;;5038550;28;20016;-75
2021/12/22 04:45:00;;;;;;;24.40;6.65;;;;;;;;;;5054924;28;20029;-75
2021/12/22 04:47:27;;;;;;;12.90;5.07;;;;;;;;;;5037344;28;20127;-75
2021/12/22 04:49:55;;;;;;;27.40;8.35;;;;;;;;;;5054231;28;20119;-75
2021/12/22 04:52:26;;;;;;;20.52;5.78;;;;;;;;;;5054530;28;20020;-76
2021/12/22 04:55:14;;;;;;;22.83;5.93;;;;;;;;;;5054591;28;20024;-76
2021/12/22 04:57:39;;;;;;;15.45;6.78;;;;;;;;;;5071629;28;20350;-74
2021/12/22 05:00:07;;;;;;;20.08;6.75;;;;;;;;;;5053376;28;20024;-74
2021/12/22 05:02:33;;;;;;;13.45;6.88;;;;;;;;;;5042233;28;20047;-75
2021/12/22 05:04:59;;;;;;;13.05;5.28;;;;;;;;;;5043017;28;20020;-77
2021/12/22 05:07:26;;;;;;;17.75;6.57;;;;;;;;;;5059760;28;20047;-79
2021/12/22 05:09:52;;;;;;;14.60;5.43;;;;;;;;;;5044817;28;20027;-77
2021/12/22 05:12:18;;;;;;;15.48;5.10;;;;;;;;;;5056216;28;20025;-77
2021/12/22 05:14:47;;;;;;;10.77;4.90;;;;;;;;;;5056025;28;20017;-76
2021/12/22 05:20:00;;;;;;;25.17;11.88;;;;;;;;;;5042752;28;20028;-77
2021/12/22 05:22:27;;;;;;;16.40;8.15;;;;;;;;;;5071752;22;20044;-78
2021/12/22 05:24:54;;;;;;;17.05;5.07;;;;;;;;;;5048631;28;20017;-79
2021/12/22 05:27:20;;;;;;;15.30;6.60;;;;;;;;;;5053849;22;20186;-77
2021/12/22 05:29:46;;;;;;;13.40;6.43;;;;;;;;;;5064458;28;20024;-79
2021/12/22 05:32:12;;;;;;;18.35;8.18;;;;;;;;;;5059626;28;20025;-77
2021/12/22 05:34:38;;;;;;;18.42;7.32;;;;;;;;;;5042163;28;20334;-77
2021/12/22 05:37:05;;;;;;;15.93;8.35;;;;;;;;;;5043094;28;20457;-77
2021/12/22 05:39:31;;;;;;;18.42;6.75;;;;;;;;;;5060197;28;20411;-77
2021/12/22 05:41:59;;;;;;;26.13;6.90;;;;;;;;;;5060116;28;20359;-78
2021/12/22 05:44:25;;;;;;;29.80;8.68;;;;;;;;;;5058947;28;20120;-78
2021/12/22 05:46:51;;;;;;;27.95;9.43;;;;;;;;;;5042867;28;20017;-76
2021/12/22 05:49:20;;;;;;;30.60;14.48;;;;;;;;;;5057459;28;20017;-80
2021/12/22 05:51:47;;;;;;;39.33;18.90;;;;;;;;;;5040990;28;20304;-78
2021/12/22 05:54:14;;;;;;;41.88;18.95;;;;;;;;;;5040380;28;20419;-77
2021/12/22 05:56:40;;;;;;;48.97;18.50;;;;;;;;;;5041689;28;20030;-77
2021/12/22 05:59:07;;;;;;;40.60;16.92;;;;;;;;;;5075005;28;20103;-77
2021/12/22 06:01:34;;;;;;;20.75;8.75;;;;;;;;;;5048926;22;20056;-75
2021/12/22 06:04:00;;;;;;;31.90;12.57;;;;;;;;;;5073295;28;20027;-76
2021/12/22 06:06:30;;;;;;;37.72;15.10;;;;;;;;;;5057541;28;20456;-76
2021/12/22 06:08:59;;;;;;;28.92;12.18;;;;;;;;;;5072553;22;20080;-77
2021/12/22 06:11:25;;;;;;;22.83;10.68;;;;;;;;;;5041679;28;20021;-77
2021/12/22 06:13:51;;;;;;;28.30;11.95;;;;;;;;;;5074938;28;20048;-77
2021/12/22 06:16:19;;;;;;;25.13;8.07;;;;;;;;;;5040634;28;20013;-77
2021/12/22 06:18:54;;;;;;;15.85;8.30;;;;;;;;;;5061069;28;20036;-79
2021/12/22 06:21:21;;;;;;;20.90;7.93;;;;;;;;;;5041998;28;20085;-77
2021/12/22 06:23:47;;;;;;;19.08;6.68;;;;;;;;;;5042895;28;20020;-78
2021/12/22 06:26:14;;;;;;;19.95;6.85;;;;;;;;;;5057519;28;20107;-76
2021/12/22 06:28:40;;;;;;;20.23;6.85;;;;;;;;;;5042424;28;20040;-78
2021/12/22 06:31:07;;;;;;;26.67;9.88;;;;;;;;;;5055925;28;20044;-78
2021/12/22 06:33:35;;;;;;;20.83;8.32;;;;;;;;;;5057485;28;20044;-77
2021/12/22 06:36:01;;;;;;;16.85;7.82;;;;;;;;;;5059536;28;20016;-78
2021/12/22 06:38:29;;;;;;;24.95;7.07;;;;;;;;;;5059083;28;20033;-77
2021/12/22 06:40:59;;;;;;;18.42;8.23;;;;;;;;;;5075674;28;20337;-77
2021/12/22 06:43:25;;;;;;;24.15;9.30;;;;;;;;;;5058894;28;20052;-77
2021/12/22 06:45:52;;;;;;;22.17;8.82;;;;;;;;;;5076362;28;20100;-77
2021/12/22 06:48:18;;;;;;;25.83;7.50;;;;;;;;;;5075298;28;20074;-78
2021/12/22 06:50:45;;;;;;;17.33;7.03;;;;;;;;;;5041215;28;20108;-77
2021/12/22 06:53:14;;;;;;;18.65;7.00;;;;;;;;;;5058559;28;20192;-77
2021/12/22 06:55:42;;;;;;;15.60;6.57;;;;;;;;;;5025499;28;20027;-77
2021/12/22 06:58:08;;;;;;;20.05;6.03;;;;;;;;;;5041414;28;20047;-76
2021/12/22 07:00:43;;;;;;;15.77;6.10;;;;;;;;;;5026402;28;20351;-77
2021/12/22 07:03:10;;;;;;;17.58;6.80;;;;;;;;;;5058753;28;20039;-77
2021/12/22 07:05:36;;;;;;;31.40;11.90;;;;;;;;;;5057516;28;20070;-77
2021/12/22 07:08:02;;;;;;;16.70;6.93;;;;;;;;;;5058796;28;20036;-77
2021/12/22 07:10:30;;;;;;;16.42;6.47;;;;;;;;;;5057261;28;20023;-77
2021/12/22 07:13:00;;;;;;;29.02;8.80;;;;;;;;;;5075875;28;20101;-77
2021/12/22 07:15:27;;;;;;;54.38;11.85;;;;;;;;;;5040178;28;20048;-77
2021/12/22 07:17:55;;;;;;;21.23;6.53;;;;;;;;;;5041365;28;20040;-76
2021/12/22 07:20:22;;;;;;;17.10;7.07;;;;;;;;;;5040343;28;20464;-76
2021/12/22 07:22:49;;;;;;;24.52;7.22;;;;;;;;;;5049263;23;20473;-77
2021/12/22 07:25:18;;;;;;;29.92;8.90;;;;;;;;;;5039422;28;20020;-77
2021/12/22 07:27:45;;;;;;;24.23;8.95;;;;;;;;;;5056947;28;20085;-77
2021/12/22 07:30:12;;;;;;;22.40;8.80;;;;;;;;;;5056636;28;20158;-77
2021/12/22 07:32:38;;;;;;;23.33;7.78;;;;;;;;;;5075336;28;20017;-76
2021/12/22 07:35:24;;;;;;;23.02;8.73;;;;;;;;;;5056301;28;20021;-77
2021/12/22 07:38:23;;;;;;;18.60;7.78;;;;;;;;;;5057010;28;20094;-79
2021/12/22 07:40:50;;;;;;;21.10;7.80;;;;;;;;;;5003240;28;20025;-76
2021/12/22 07:43:17;;;;;;;47.85;15.48;;;;;;;;;;5056862;28;20024;-77
2021/12/22 07:45:43;;;;;;;19.42;8.88;;;;;;;;;;5072792;28;20115;-77
2021/12/22 07:48:10;;;;;;;30.70;9.02;;;;;;;;;;5040077;28;20017;-77
2021/12/22 07:50:37;;;;;;;23.52;8.20;;;;;;;;;;5056525;28;20023;-77
2021/12/22 07:53:05;;;;;;;23.27;6.63;;;;;;;;;;5057829;28;20375;-78
2021/12/22 07:55:31;;;;;;;16.13;6.68;;;;;;;;;;5056690;28;20031;-79
2021/12/22 07:57:57;;;;;;;19.25;7.20;;;;;;;;;;5039796;28;20036;-78
2021/12/22 08:00:24;;;;;;;20.90;7.32;;;;;;;;;;5039939;28;20048;-78
2021/12/22 08:02:51;;;;;;;27.48;8.85;;;;;;;;;;5038895;28;20052;-78
2021/12/22 08:05:18;;;;;;;21.52;6.68;;;;;;;;;;5040063;28;20448;-78
2021/12/22 08:07:45;;;;;;;27.42;7.25;;;;;;;;;;5038968;28;20437;-77
2021/12/22 08:10:12;;;;;;;22.17;7.38;;;;;;;;;;5056890;28;20114;-77
2021/12/22 08:12:41;;;;;;;29.35;7.75;;;;;;;;;;5074922;28;20132;-77
2021/12/22 08:15:09;;;;;;;17.27;6.73;;;;;;;;;;5040889;28;20028;-77
2021/12/22 08:17:36;;;;;;;31.35;7.55;;;;;;;;;;5041104;28;20085;-78
2021/12/22 08:20:09;;;;;;;13.73;5.50;;;;;;;;;;5040971;28;20020;-78
2021/12/22 08:22:35;;;;;;;37.42;8.27;;;;;;;;;;5041555;28;20055;-77
2021/12/22 08:25:02;;;;;;;16.23;6.72;;;;;;;;;;5041016;28;20021;-77
2021/12/22 08:27:30;;;;;;;35.85;8.30;;;;;;;;;;5057554;28;20123;-78
2021/12/22 08:29:59;;;;;;;40.50;8.45;;;;;;;;;;5042213;28;20017;-78
2021/12/22 08:32:37;;;;;;;117.10;20.83;;;;;;;;;;5040919;28;20066;-78
2021/12/22 08:35:11;;;;;;;16.80;6.28;;;;;;;;;;5057932;28;20021;-78
2021/12/22 08:40:24;;;;;;;23.33;10.18;;;;;;;;;;5057937;28;20031;-77
2021/12/22 08:42:53;;;;;;;33.13;10.10;;;;;;;;;;5041524;28;20025;-78
2021/12/22 08:45:23;;;;;;;29.88;12.00;;;;;;;;;;5040395;28;20407;-78
2021/12/22 08:47:53;;;;;;;54.95;13.10;;;;;;;;;;5057938;28;20452;-78
2021/12/22 08:50:24;;;;;;;40.83;11.68;;;;;;;;;;5040826;28;20024;-77
2021/12/22 08:52:51;;;;;;;54.92;13.90;;;;;;;;;;5040703;28;20066;-78
2021/12/22 08:55:20;;;;;;;24.38;9.52;;;;;;;;;;5041317;28;20024;-78
2021/12/22 08:57:47;;;;;;;38.75;12.98;;;;;;;;;;5062450;28;20046;-78
2021/12/22 09:00:14;;;;;;;30.05;9.05;;;;;;;;;;5046083;28;20023;-77
2021/12/22 09:02:45;;;;;;;73.25;14.30;;;;;;;;;;5062361;28;20024;-77
2021/12/22 09:05:12;;;;;;;27.80;11.13;;;;;;;;;;5061162;28;20111;-77
2021/12/22 09:07:38;;;;;;;40.00;10.95;;;;;;;;;;5061170;28;20020;-77
2021/12/22 09:10:05;;;;;;;28.15;11.05;;;;;;;;;;5046280;28;20016;-77
2021/12/22 09:12:31;;;;;;;24.63;9.57;;;;;;;;;;5046877;28;20025;-77
2021/12/22 09:14:59;;;;;;;22.27;9.82;;;;;;;;;;5063958;28;20021;-77
2021/12/22 09:17:27;;;;;;;22.02;8.57;;;;;;;;;;5046717;28;20036;-77
2021/12/22 09:19:55;;;;;;;20.30;8.00;;;;;;;;;;5047231;28;20028;-77
2021/12/22 09:22:22;;;;;;;31.70;10.93;;;;;;;;;;5047192;28;20032;-77
2021/12/22 09:24:52;;;;;;;22.13;11.20;;;;;;;;;;5047648;28;20406;-77
2021/12/22 09:27:18;;;;;;;39.42;12.77;;;;;;;;;;5046716;28;20024;-77
2021/12/22 09:29:45;;;;;;;39.33;11.70;;;;;;;;;;5063326;28;20029;-77
2021/12/22 09:32:14;;;;;;;40.75;12.90;;;;;;;;;;5046151;28;20039;-77
2021/12/22 09:34:42;;;;;;;36.70;14.57;;;;;;;;;;5045760;28;20094;-77
2021/12/22 09:37:08;;;;;;;36.95;13.43;;;;;;;;;;5046354;28;20032;-77
2021/12/22 09:39:35;;;;;;;40.58;13.52;;;;;;;;;;5046145;28;20021;-77
2021/12/22 09:42:00;;;;;;;30.42;13.13;;;;;;;;;;5045849;28;20082;-77
2021/12/22 09:44:31;;;;;;;39.13;14.10;;;;;;;;;;5062349;28;20441;-77
2021/12/22 09:46:59;;;;;;;31.70;14.52;;;;;;;;;;5045975;28;20024;-77
2021/12/22 09:52:17;;;;;;;74.80;15.60;;;;;;;;;;5063574;28;20029;-77
2021/12/22 09:54:44;;;;;;;43.33;14.25;;;;;;;;;;5079766;28;20039;-77
2021/12/22 09:57:11;;;;;;;51.33;14.63;;;;;;;;;;5045410;28;20028;-76
2021/12/22 09:59:39;;;;;;;64.22;21.60;;;;;;;;;;5062571;28;20025;-77
2021/12/22 10:02:06;;;;;;;57.00;24.42;;;;;;;;;;5062476;28;20028;-77
2021/12/22 10:04:32;;;;;;;50.65;23.95;;;;;;;;;;5080433;28;20088;-77
2021/12/22 10:07:00;;;;;;;86.35;29.10;;;;;;;;;;5045666;28;20029;-77
2021/12/22 10:09:26;;;;;;;44.72;22.00;;;;;;;;;;5061805;28;20068;-77
2021/12/22 10:11:52;;;;;;;42.47;23.10;;;;;;;;;;5063346;28;20024;-76
2021/12/22 10:14:19;;;;;;;58.67;23.25;;;;;;;;;;5046567;28;20016;-76
2021/12/22 10:16:51;;;;;;;47.97;21.25;;;;;;;;;;5062897;28;20025;-76
2021/12/22 10:19:19;;;;;;;42.85;22.33;;;;;;;;;;5062116;28;20381;-76
2021/12/22 10:21:59;;;;;;;75.95;25.17;;;;;;;;;;5061931;28;20354;-77
2021/12/22 10:24:46;;;;;;;51.83;21.13;;;;;;;;;;5062732;28;20032;-77
2021/12/22 10:27:18;;;;;;;49.20;21.85;;;;;;;;;;5063425;28;20023;-77
2021/12/22 10:29:44;;;;;;;51.58;26.17;;;;;;;;;;5061825;28;20025;-77
2021/12/22 10:32:15;;;;;;;54.80;25.70;;;;;;;;;;5079974;28;20438;-77
2021/12/22 10:35:02;;;;;;;84.93;30.75;;;;;;;;;;5061944;28;20025;-76
2021/12/22 10:37:35;;;;;;;59.97;28.50;;;;;;;;;;5079572;28;20028;-77
2021/12/22 10:40:19;;;;;;;92.10;28.55;;;;;;;;;;5078466;28;20111;-77
2021/12/22 10:42:47;;;;;;;93.55;32.05;;;;;;;;;;5079773;28;20021;-77
2021/12/22 10:45:14;;;;;;;82.53;30.67;;;;;;;;;;5043873;28;20016;-77
2021/12/22 10:50:36;;;;;;;80.03;28.48;;;;;;;;;;5078445;28;20384;-77
2021/12/22 10:53:02;;;;;;;108.65;41.63;;;;;;;;;;5044647;28;20024;-77
2021/12/22 10:55:42;;;;;;;96.63;43.05;;;;;;;;;;5079930;28;20028;-77
2021/12/22 10:58:41;;;;;;;116.57;44.00;;;;;;;;;;5079003;28;20047;-77
2021/12/22 11:01:09;;;;;;;87.75;43.15;;;;;;;;;;5024634;28;20086;-77
2021/12/22 11:03:41;;;;;;;124.97;45.78;;;;;;;;;;5061722;28;20022;-77
2021/12/22 11:06:12;;;;;;;96.05;45.50;;;;;;;;;;5061855;28;20024;-77
2021/12/22 11:08:37;;;;;;;;;;;;;;;;;;5044676;28;20382;-77
2021/12/22 11:11:10;;;;;;;103.35;44.83;;;;;;;;;;5078406;28;19904;-77
2021/12/22 11:13:37;;;;;;;193.50;55.17;;;;;;;;;;5079138;28;20016;-77
2021/12/22 11:16:09;;;;;;;108.70;50.00;;;;;;;;;;5060847;28;20354;-76
2021/12/22 11:18:36;;;;;;;111.55;46.55;;;;;;;;;;5079616;28;20028;-77
2021/12/22 11:21:15;;;;;;;101.43;46.58;;;;;;;;;;5060583;28;20017;-76
2021/12/22 11:23:41;;;;;;;109.30;48.75;;;;;;;;;;5062739;28;20123;-77
2021/12/22 11:26:08;;;;;;;92.07;42.38;;;;;;;;;;5078768;28;20400;-76
2021/12/22 11:28:34;;;;;;;100.15;43.28;;;;;;;;;;5061405;28;20326;-77
2021/12/22 11:31:02;;;;;;;93.65;43.67;;;;;;;;;;5044278;28;20021;-77
2021/12/22 11:33:30;;;;;;;100.25;45.25;;;;;;;;;;5044179;28;20020;-77
2021/12/22 11:35:57;;;;;;;84.70;39.40;;;;;;;;;;5043725;28;20024;-77
2021/12/22 11:38:23;;;;;;;100.47;43.63;;;;;;;;;;5060225;28;20047;-77
2021/12/22 11:40:55;;;;;;;87.80;38.97;;;;;;;;;;5060337;28;20062;-77
2021/12/22 11:43:22;;;;;;;89.80;39.22;;;;;;;;;;5043643;28;20071;-77
2021/12/22 11:45:48;;;;;;;88.70;42.40;;;;;;;;;;5061714;28;20016;-77
2021/12/22 11:48:15;;;;;;;116.25;42.58;;;;;;;;;;5045073;28;20342;-77
2021/12/22 11:50:46;;;;;;;383.63;181.35;;;;;;;;;;5043750;28;20111;-77
2021/12/22 11:53:12;;;;;;;300.70;144.57;;;;;;;;;;5060529;28;20034;-77
2021/12/22 11:55:40;;;;;;;202.40;85.63;;;;;;;;;;5044708;28;20346;-76
2021/12/22 11:58:14;;;;;;;188.13;93.30;;;;;;;;;;5043334;28;20037;-77
2021/12/22 12:00:44;;;;;;;132.27;59.38;;;;;;;;;;5077279;28;20021;-77
2021/12/22 12:03:31;;;;;;;166.82;66.50;;;;;;;;;;5060586;28;20501;-76
2021/12/22 12:06:06;;;;;;;69.43;26.70;;;;;;;;;;5077082;28;20017;-76
2021/12/22 12:08:45;;;;;;;64.97;25.50;;;;;;;;;;5060372;28;20020;-76
2021/12/22 12:11:18;;;;;;;77.68;36.90;;;;;;;;;;5044170;28;20021;-77
2021/12/22 12:13:57;;;;;;;87.63;40.05;;;;;;;;;;5078964;28;20020;-77
2021/12/22 12:21:59;;;;;;;67.55;27.52;;;;;;;;;;5078580;28;20411;-76
2021/12/22 12:24:31;;;;;;;60.60;25.30;;;;;;;;;;5077360;28;20024;-76
2021/12/22 12:26:58;;;;;;;66.55;26.33;;;;;;;;;;5078489;28;20032;-76
2021/12/22 12:29:42;;;;;;;78.22;25.08;;;;;;;;;;5078440;28;20094;-77
2021/12/22 12:32:09;;;;;;;88.93;26.08;;;;;;;;;;5059641;28;20027;-77
2021/12/22 12:34:39;;;;;;;76.50;29.55;;;;;;;;;;5060611;28;20027;-77
2021/12/22 12:37:06;;;;;;;65.13;27.10;;;;;;;;;;5059318;28;20016;-77
2021/12/22 12:40:03;;;;;;;63.33;24.05;;;;;;;;;;5060075;28;20060;-77
2021/12/22 12:42:49;;;;;;;73.10;26.88;;;;;;;;;;5039400;28;20182;-77
2021/12/22 12:45:34;;;;;;;63.83;25.55;;;;;;;;;;5060224;28;20106;-77
2021/12/22 12:48:32;;;;;;;101.03;32.70;;;;;;;;;;5043956;28;20020;-77
2021/12/22 12:51:19;;;;;;;72.82;25.20;;;;;;;;;;5005291;28;20099;-77
2021/12/22 12:53:47;;;;;;;107.97;42.72;;;;;;;;;;5059183;28;20131;-77
2021/12/22 12:56:16;;;;;;;146.43;67.65;;;;;;;;;;5043536;28;20029;-77
2021/12/22 12:58:52;;;;;;;147.98;63.92;;;;;;;;;;5042949;28;20449;-77
2021/12/22 13:01:18;;;;;;;160.65;72.25;;;;;;;;;;5078718;28;20017;-77
2021/12/22 13:03:48;;;;;;;174.52;75.75;;;;;;;;;;5060525;28;20050;-77
2021/12/22 13:06:15;;;;;;;150.25;67.10;;;;;;;;;;5042679;28;20099;-76
2021/12/22 13:08:44;;;;;;;152.20;70.88;;;;;;;;;;5045116;28;20441;-77
2021/12/22 13:11:12;;;;;;;167.88;72.13;;;;;;;;;;5043811;28;20307;-77
2021/12/22 13:15:46;;;;;;;168.60;70.05;;;;;;;;;;5043477;28;20020;-76
2021/12/22 13:16:45;;;;;;;141.05;59.58;;;;;;;;;;5078042;28;20028;-77
2021/12/22 13:19:31;;;;;;;154.43;64.50;;;;;;;;;;5043249;28;20342;-77
2021/12/22 13:21:57;;;;;;;76.85;31.27;;;;;;;;;;5079301;28;20025;-77
2021/12/22 13:24:23;;;;;;;105.88;42.20;;;;;;;;;;5044089;28;20024;-77
2021/12/22 13:26:49;;;;;;;121.20;51.58;;;;;;;;;;5043967;28;20135;-77
2021/12/22 13:29:15;;;;;;;106.85;44.03;;;;;;;;;;5042738;28;20074;-77
2021/12/22 13:31:42;;;;;;;127.95;49.28;;;;;;;;;;5060916;28;20415;-77
2021/12/22 13:34:08;;;;;;;89.47;31.85;;;;;;;;;;5043108;28;20028;-77
2021/12/22 13:36:35;;;;;;;135.60;43.97;;;;;;;;;;5059256;28;20020;-76
2021/12/22 13:39:04;;;;;;;79.30;27.55;;;;;;;;;;5042824;28;20044;-77
2021/12/22 13:41:33;;;;;;;63.63;24.60;;;;;;;;;;5043493;28;20051;-77
2021/12/22 13:44:00;;;;;;;81.82;27.20;;;;;;;;;;5046491;28;20031;-76
2021/12/22 13:46:27;;;;;;;87.20;26.15;;;;;;;;;;5062826;28;20013;-77
2021/12/22 13:48:55;;;;;;;86.75;32.45;;;;;;;;;;5062489;28;20150;-77
2021/12/22 13:51:21;;;;;;;79.88;29.80;;;;;;;;;;5063442;28;20375;-77
2021/12/22 13:53:49;;;;;;;62.85;22.98;;;;;;;;;;5063342;28;20027;-77
2021/12/22 13:56:17;;;;;;;83.30;22.65;;;;;;;;;;5046851;28;20111;-77
2021/12/22 13:58:45;;;;;;;67.80;23.90;;;;;;;;;;5046686;28;20390;-77
2021/12/22 14:01:16;;;;;;;64.15;19.00;;;;;;;;;;5047319;28;20031;-76
2021/12/22 14:03:42;;;;;;;;;;;;;;;;;;5048033;28;20448;-77
2021/12/22 14:06:10;;;;;;;72.88;22.30;;;;;;;;;;5062679;28;19905;-77
2021/12/22 14:08:37;;;;;;;60.28;19.83;;;;;;;;;;5046918;28;20017;-77
2021/12/22 14:11:23;;;;;;;68.15;20.05;;;;;;;;;;5062709;28;20107;-76
2021/12/22 14:13:49;;;;;;;64.03;20.50;;;;;;;;;;5061726;28;20086;-77
2021/12/22 14:16:24;;;;;;;55.15;18.50;;;;;;;;;;5045762;28;20467;-75
2021/12/22 14:18:51;;;;;;;64.90;18.55;;;;;;;;;;5080463;28;20040;-76
2021/12/22 14:21:23;;;;;;;78.95;19.50;;;;;;;;;;5045956;28;20027;-77
2021/12/22 14:23:57;;;;;;;55.35;18.88;;;;;;;;;;5063180;28;20055;-77
2021/12/22 14:26:23;;;;;;;73.60;20.23;;;;;;;;;;5045842;28;20020;-76
2021/12/22 14:29:03;;;;;;;57.88;20.17;;;;;;;;;;5061447;28;20096;-77
2021/12/22 14:31:30;;;;;;;58.75;23.27;;;;;;;;;;5063143;28;20016;-76
2021/12/22 14:34:07;;;;;;;70.40;19.40;;;;;;;;;;5080604;28;20398;-76
2021/12/22 14:36:45;;;;;;;83.55;21.33;;;;;;;;;;5079530;28;20028;-76
2021/12/22 14:39:12;;;;;;;63.60;18.70;;;;;;;;;;5062396;28;20057;-76
2021/12/22 14:41:38;;;;;;;50.95;16.00;;;;;;;;;;5080267;28;20017;-77
2021/12/22 14:44:19;;;;;;;52.13;18.58;;;;;;;;;;5062185;28;20020;-77
2021/12/22 14:46:46;;;;;;;66.30;20.02;;;;;;;;;;5044982;28;20047;-77
2021/12/22 14:49:17;;;;;;;73.95;18.73;;;;;;;;;;5045523;28;20036;-76
2021/12/22 14:51:43;;;;;;;;;;;;;;;;;;5079635;28;20021;-77
2021/12/22 14:54:11;;;;;;;59.53;19.50;;;;;;;;;;5061410;28;19944;-76
2021/12/22 14:56:40;;;;;;;89.20;21.67;;;;;;;;;;5029611;28;20346;-76
2021/12/22 14:59:06;;;;;;;77.60;21.83;;;;;;;;;;5062023;28;20109;-76
2021/12/22 15:01:32;;;;;;;55.05;18.50;;;;;;;;;;5044434;28;20393;-76